Time;durP1;ratioP1;P1;durP2;ratioP2;P2;SDS_P1;SDS_P2;PMS_P1;PMS_P2;Temp;Humidity;BMP_temperature;BMP_pressure;BME280_temperature;BME280_humidity;BME280_pressure;Samples;Min_cycle;Max_cycle;Signal;HPM_P1;HPM_P2
2021/12/11 00:01:44;;;;;;;8.25;3.50;;;5.90;90.60;;;;;;5045859;28;20078;-76
2021/12/11 00:04:14;;;;;;;6.22;2.72;;;5.90;90.60;;;;;;5045613;28;20070;-76
2021/12/11 00:06:44;;;;;;;9.23;3.30;;;5.90;90.50;;;;;;5045817;28;20040;-75
2021/12/11 00:09:23;;;;;;;7.70;3.00;;;5.80;90.60;;;;;;5050521;28;20024;-75
2021/12/11 00:11:57;;;;;;;8.13;2.97;;;5.80;90.70;;;;;;5048264;28;20028;-74
2021/12/11 00:14:26;;;;;;;8.93;2.70;;;5.80;90.60;;;;;;5048149;28;20021;-75
2021/12/11 00:16:52;;;;;;;6.85;2.50;;;5.90;90.20;;;;;;5048238;28;20310;-76
2021/12/11 00:19:29;;;;;;;8.07;2.65;;;5.80;90.40;;;;;;5046335;28;20590;-75
2021/12/11 00:22:12;;;;;;;9.02;2.28;;;5.80;89.80;;;;;;5038721;28;20203;-76
2021/12/11 00:24:39;;;;;;;4.75;2.05;;;5.90;90.10;;;;;;5050625;28;20516;-75
2021/12/11 00:27:14;;;;;;;7.43;2.00;;;5.80;90.20;;;;;;5047571;28;20061;-75
2021/12/11 00:29:40;;;;;;;5.50;2.00;;;5.80;90.00;;;;;;5047361;28;20281;-75
2021/12/11 00:32:12;;;;;;;5.32;2.17;;;5.80;89.80;;;;;;5048068;28;20532;-75
2021/12/11 00:34:43;;;;;;;4.82;1.85;;;5.70;90.20;;;;;;5047233;28;20025;-75
2021/12/11 00:37:10;;;;;;;6.25;2.10;;;5.60;90.10;;;;;;5046137;28;20512;-74
2021/12/11 00:39:49;;;;;;;6.47;2.05;;;5.60;90.40;;;;;;5046449;28;20037;-76
2021/12/11 00:42:15;;;;;;;8.43;2.60;;;5.50;90.60;;;;;;5048053;28;20080;-75
2021/12/11 00:44:48;;;;;;;6.72;1.95;;;5.50;90.70;;;;;;5050856;28;20051;-76
2021/12/11 00:47:18;;;;;;;7.43;2.40;;;5.60;90.80;;;;;;5051130;28;20036;-76
2021/12/11 00:49:56;;;;;;;9.90;3.38;;;5.50;90.40;;;;;;5046420;28;20020;-75
2021/12/11 00:52:51;;;;;;;7.10;2.97;;;5.50;90.30;;;;;;5040611;28;20021;-76
2021/12/11 00:55:23;;;;;;;;;;;5.50;90.50;;;;;;5045342;28;20420;-76
2021/12/11 00:58:00;;;;;;;8.65;3.10;;;5.60;90.30;;;;;;5041748;28;20822;-75
2021/12/11 01:00:26;;;;;;;7.40;2.90;;;5.60;90.10;;;;;;5039228;28;20069;-75
2021/12/11 01:02:56;;;;;;;5.30;2.17;;;5.40;90.60;;;;;;5051103;28;20052;-75
2021/12/11 01:05:23;;;;;;;5.13;2.53;;;5.30;90.70;;;;;;5057870;28;20021;-75
2021/12/11 01:07:49;;;;;;;4.90;1.98;;;5.40;90.30;;;;;;5051073;28;20037;-75
2021/12/11 01:10:24;;;;;;;9.25;2.28;;;5.60;89.50;;;;;;5051700;28;20023;-75
2021/12/11 01:12:59;;;;;;;2.92;1.60;;;5.60;89.30;;;;;;5055084;28;20574;-76
2021/12/11 01:15:43;;;;;;;6.25;2.10;;;5.60;90.30;;;;;;5041225;28;20024;-76
2021/12/11 01:20:53;;;;;;;5.05;2.25;;;5.40;91.00;;;;;;5055466;28;19962;-76
2021/12/11 01:26:02;;;;;;;8.07;2.80;;;5.30;91.20;;;;;;5057799;28;20140;-75
2021/12/11 01:28:28;;;;;;;9.20;2.70;;;5.20;91.80;;;;;;5047825;28;20028;-75
2021/12/11 01:30:55;;;;;;;9.05;2.33;;;5.10;91.70;;;;;;5050860;28;20057;-75
2021/12/11 01:33:23;;;;;;;7.20;2.83;;;5.20;91.70;;;;;;5054054;28;20025;-75
2021/12/11 01:35:49;;;;;;;9.93;3.22;;;5.20;92.10;;;;;;5056989;28;20059;-76
2021/12/11 01:38:26;;;;;;;8.93;3.45;;;5.10;92.10;;;;;;5062229;28;20095;-75
2021/12/11 01:40:56;;;;;;;9.48;2.35;;;5.00;92.90;;;;;;5058269;28;20032;-75
2021/12/11 01:43:25;;;;;;;6.25;2.53;;;5.20;92.00;;;;;;5053472;28;20082;-75
2021/12/11 01:45:53;;;;;;;8.93;2.78;;;5.30;91.90;;;;;;5055263;28;20028;-75
2021/12/11 01:48:24;;;;;;;8.57;3.00;;;5.30;91.40;;;;;;5057804;28;20163;-75
2021/12/11 01:50:55;;;;;;;9.82;3.63;;;5.20;91.60;;;;;;5047200;28;20025;-76
2021/12/11 01:53:27;;;;;;;9.35;4.05;;;5.10;92.20;;;;;;5056410;28;20435;-75
2021/12/11 01:55:57;;;;;;;8.40;3.60;;;5.00;92.20;;;;;;5054938;28;20078;-75
2021/12/11 01:58:34;;;;;;;8.98;3.05;;;5.00;92.20;;;;;;5048790;28;20485;-76
2021/12/11 02:01:11;;;;;;;6.57;2.92;;;5.00;92.70;;;;;;5051435;28;20032;-75
2021/12/11 02:03:37;;;;;;;6.50;2.20;;;4.90;93.40;;;;;;5051877;28;20508;-75
2021/12/11 02:06:04;;;;;;;6.47;2.08;;;5.00;92.50;;;;;;5049860;28;20024;-75
2021/12/11 02:08:34;;;;;;;5.60;2.40;;;5.20;91.60;;;;;;5059205;28;20021;-75
2021/12/11 02:11:09;;;;;;;6.65;2.65;;;5.20;91.50;;;;;;5054921;28;20028;-75
2021/12/11 02:13:46;;;;;;;7.25;1.90;;;5.30;90.60;;;;;;5048673;28;20024;-75
2021/12/11 02:16:24;;;;;;;6.85;2.13;;;5.50;90.40;;;;;;5049458;28;20124;-74
2021/12/11 02:18:57;;;;;;;5.85;1.73;;;5.50;90.00;;;;;;5052754;28;20394;-76
2021/12/11 02:21:29;;;;;;;5.07;1.42;;;5.60;89.50;;;;;;5054911;28;20045;-75
2021/12/11 02:24:05;;;;;;;6.82;1.95;;;5.70;88.90;;;;;;5051426;28;20025;-75
2021/12/11 02:26:33;;;;;;;4.82;1.90;;;5.60;89.70;;;;;;5058251;28;20071;-75
2021/12/11 02:29:29;;;;;;;5.30;1.88;;;5.50;89.40;;;;;;5058484;28;20048;-75
2021/12/11 02:32:02;;;;;;;6.30;2.00;;;5.40;90.10;;;;;;5059159;28;20063;-75
2021/12/11 02:34:36;;;;;;;5.80;1.75;;;5.40;89.80;;;;;;5051272;28;20023;-75
2021/12/11 02:37:40;;;;;;;4.63;1.90;;;5.40;90.00;;;;;;5052428;28;20086;-75
2021/12/11 02:40:10;;;;;;;3.22;1.48;;;5.40;89.70;;;;;;5036673;28;20045;-76
2021/12/11 02:42:54;;;;;;;4.32;1.30;;;5.50;89.20;;;;;;5048873;28;20039;-75
2021/12/11 02:45:39;;;;;;;5.97;1.40;;;5.60;88.50;;;;;;5048367;28;20025;-75
2021/12/11 02:48:40;;;;;;;3.63;1.50;;;5.70;88.60;;;;;;5043296;28;20034;-75
2021/12/11 02:51:18;;;;;;;5.70;1.40;;;5.80;88.60;;;;;;5043413;28;20026;-75
2021/12/11 02:53:54;;;;;;;4.30;2.13;;;5.80;88.80;;;;;;5050598;28;20044;-75
2021/12/11 02:56:24;;;;;;;4.22;1.42;;;5.80;88.80;;;;;;5062241;28;20111;-75
2021/12/11 02:58:56;;;;;;;4.38;1.17;;;5.80;88.80;;;;;;5053372;28;20021;-75
2021/12/11 03:01:27;;;;;;;4.60;1.40;;;5.90;88.80;;;;;;5054568;28;20038;-75
2021/12/11 03:04:05;;;;;;;3.33;1.40;;;6.00;87.90;;;;;;5053979;28;20378;-75
2021/12/11 03:06:36;;;;;;;6.05;1.27;;;6.00;88.90;;;;;;5053870;28;20005;-74
2021/12/11 03:09:04;;;;;;;3.70;1.55;;;6.00;88.50;;;;;;5053962;28;20456;-75
2021/12/11 03:11:32;;;;;;;7.20;1.38;;;6.10;87.40;;;;;;5058080;28;20051;-75
2021/12/11 03:13:59;;;;;;;6.35;1.70;;;6.20;87.10;;;;;;5053231;28;20029;-74
2021/12/11 03:16:29;;;;;;;3.20;1.35;;;6.30;87.20;;;;;;5053191;28;20053;-75
2021/12/11 03:18:56;;;;;;;3.63;1.20;;;6.30;86.30;;;;;;5051998;28;20033;-74
2021/12/11 03:21:22;;;;;;;4.85;1.30;;;6.30;86.30;;;;;;5059904;28;20110;-75
2021/12/11 03:23:49;;;;;;;4.80;1.40;;;6.40;86.00;;;;;;5063383;28;20447;-74
2021/12/11 03:26:15;;;;;;;3.22;1.30;;;6.40;86.30;;;;;;5061743;28;20024;-74
2021/12/11 03:28:40;;;;;;;2.95;1.25;;;6.40;86.20;;;;;;5053960;28;20206;-75
2021/12/11 03:31:08;;;;;;;4.22;1.50;;;6.40;86.20;;;;;;5056131;28;20106;-76
2021/12/11 03:33:42;;;;;;;4.05;1.25;;;6.30;86.30;;;;;;5058929;28;20118;-75
2021/12/11 03:36:10;;;;;;;4.95;1.15;;;6.40;86.00;;;;;;5060987;28;20120;-75
2021/12/11 03:38:40;;;;;;;2.97;1.20;;;6.40;85.50;;;;;;5063334;28;20365;-75
2021/12/11 03:41:06;;;;;;;3.47;1.65;;;6.40;85.20;;;;;;5058988;28;20042;-74
2021/12/11 03:43:33;;;;;;;6.00;1.40;;;6.40;85.20;;;;;;5045884;28;20032;-75
2021/12/11 03:46:02;;;;;;;2.28;1.00;;;6.50;85.20;;;;;;5056950;28;20034;-75
2021/12/11 03:48:34;;;;;;;3.60;1.15;;;6.60;83.90;;;;;;5058755;28;20034;-75
2021/12/11 03:51:05;;;;;;;5.53;1.17;;;6.60;83.60;;;;;;5061616;28;20424;-75
2021/12/11 03:53:30;;;;;;;8.88;1.98;;;6.70;83.10;;;;;;5063030;28;20036;-75
2021/12/11 03:56:00;;;;;;;5.10;1.50;;;6.70;83.20;;;;;;5051454;28;20027;-75
2021/12/11 03:58:27;;;;;;;3.88;1.13;;;6.70;83.20;;;;;;5050204;28;20394;-75
2021/12/11 04:01:18;;;;;;;4.30;1.35;;;6.70;83.10;;;;;;5057435;28;20017;-75
2021/12/11 04:03:48;;;;;;;4.60;1.20;;;6.60;82.50;;;;;;5058418;28;20078;-75
2021/12/11 04:06:15;;;;;;;4.35;1.38;;;6.60;82.80;;;;;;5058620;28;20485;-75
2021/12/11 04:08:42;;;;;;;3.25;1.27;;;6.60;82.70;;;;;;5059400;28;20500;-75
2021/12/11 04:11:31;;;;;;;4.95;1.20;;;6.60;82.50;;;;;;5056445;28;20103;-74
2021/12/11 04:14:01;;;;;;;4.15;1.20;;;6.60;82.90;;;;;;5053952;28;20078;-75
2021/12/11 04:16:30;;;;;;;4.85;1.35;;;6.60;82.30;;;;;;5051494;28;20029;-75
2021/12/11 04:18:56;;;;;;;5.80;1.35;;;6.60;82.70;;;;;;5055219;28;20024;-75
2021/12/11 04:21:22;;;;;;;4.68;1.70;;;6.60;82.20;;;;;;5056807;28;20041;-75
2021/12/11 04:23:48;;;;;;;3.83;1.50;;;6.60;82.10;;;;;;5053013;28;20109;-75
2021/12/11 04:26:14;;;;;;;6.93;1.70;;;6.70;81.70;;;;;;5049131;28;20132;-75
2021/12/11 04:28:41;;;;;;;3.35;1.48;;;6.70;82.00;;;;;;5057553;28;20035;-75
2021/12/11 04:31:12;;;;;;;4.75;1.38;;;6.60;81.80;;;;;;5053443;28;20025;-75
2021/12/11 04:33:42;;;;;;;2.25;1.40;;;6.50;81.70;;;;;;5048750;28;20461;-75
2021/12/11 04:36:12;;;;;;;4.20;1.52;;;6.60;81.80;;;;;;5055168;28;20029;-75
2021/12/11 04:38:38;;;;;;;3.40;1.40;;;6.60;81.90;;;;;;5059638;28;20031;-75
2021/12/11 04:41:06;;;;;;;3.67;1.40;;;6.60;82.10;;;;;;5054089;28;20067;-75
2021/12/11 04:43:33;;;;;;;4.22;1.38;;;6.60;81.40;;;;;;5054893;28;20024;-75
2021/12/11 04:46:08;;;;;;;6.03;1.38;;;6.60;82.10;;;;;;5050772;28;20029;-75
2021/12/11 04:51:56;;;;;;;5.18;1.92;;;6.60;81.50;;;;;;5050309;28;20037;-75
2021/12/11 05:04:57;;;;;;;3.00;1.50;;;6.60;81.50;;;;;;5057171;28;20025;-75
2021/12/11 05:07:36;;;;;;;2.60;1.10;;;6.60;81.90;;;;;;5056028;28;20029;-75
2021/12/11 05:10:18;;;;;;;6.97;1.48;;;6.50;82.30;;;;;;5046523;28;20147;-74
2021/12/11 05:12:49;;;;;;;5.72;1.40;;;6.60;81.60;;;;;;5051338;28;20025;-75
2021/12/11 05:15:20;;;;;;;5.90;1.40;;;6.60;81.50;;;;;;5055405;28;20525;-75
2021/12/11 05:17:46;;;;;;;3.33;1.13;;;6.60;81.70;;;;;;5059750;28;20029;-75
2021/12/11 05:20:14;;;;;;;6.50;1.35;;;6.60;82.50;;;;;;5056342;28;20113;-74
2021/12/11 05:22:40;;;;;;;3.95;1.20;;;6.60;81.70;;;;;;5056187;28;20040;-75
2021/12/11 05:25:08;;;;;;;7.10;1.65;;;6.60;81.50;;;;;;5052251;28;20055;-75
2021/12/11 05:27:34;;;;;;;4.75;1.40;;;6.60;82.00;;;;;;5050914;28;20052;-74
2021/12/11 05:30:00;;;;;;;4.88;1.40;;;6.60;81.90;;;;;;5059391;28;20449;-75
2021/12/11 05:32:27;;;;;;;3.67;1.10;;;6.60;81.60;;;;;;5057475;28;20071;-75
2021/12/11 05:34:54;;;;;;;5.20;1.60;;;6.50;81.70;;;;;;5056655;28;20036;-75
2021/12/11 05:37:20;;;;;;;4.15;1.20;;;6.60;81.50;;;;;;5047757;28;20029;-75
2021/12/11 05:39:47;;;;;;;4.57;1.23;;;6.60;81.80;;;;;;5053591;28;20051;-75
2021/12/11 05:42:13;;;;;;;4.07;1.20;;;6.60;81.20;;;;;;5055952;28;20461;-74
2021/12/11 05:44:41;;;;;;;4.55;1.15;;;6.60;80.60;;;;;;5056672;28;20535;-75
2021/12/11 05:47:07;;;;;;;6.20;1.20;;;6.60;80.70;;;;;;5052147;28;20032;-75
2021/12/11 05:49:34;;;;;;;5.35;1.35;;;6.70;80.10;;;;;;5048861;28;20040;-74
2021/12/11 05:52:05;;;;;;;2.83;1.13;;;6.60;80.00;;;;;;5052982;28;20055;-75
2021/12/11 05:54:30;;;;;;;3.28;1.50;;;6.60;80.40;;;;;;5053252;28;20057;-75
2021/12/11 05:57:02;;;;;;;4.25;1.35;;;6.60;80.50;;;;;;5052608;28;20894;-74
2021/12/11 05:59:29;;;;;;;6.72;1.17;;;6.60;80.20;;;;;;5054818;28;20031;-74
2021/12/11 06:02:20;;;;;;;4.22;1.30;;;6.70;80.10;;;;;;5053636;28;20033;-75
2021/12/11 06:04:48;;;;;;;6.93;1.52;;;6.60;80.70;;;;;;5052434;28;20025;-75
2021/12/11 06:07:17;;;;;;;3.72;1.40;;;6.70;80.80;;;;;;5055143;28;20497;-75
2021/12/11 06:09:47;;;;;;;7.63;1.60;;;6.60;81.20;;;;;;5056655;28;20148;-74
2021/12/11 06:12:16;;;;;;;5.10;1.42;;;6.60;80.90;;;;;;5058598;28;20072;-75
2021/12/11 06:14:45;;;;;;;2.92;1.35;;;6.60;81.90;;;;;;5055497;28;20389;-75
2021/12/11 06:17:15;;;;;;;6.50;1.45;;;6.60;82.10;;;;;;5059218;28;20158;-74
2021/12/11 06:19:49;;;;;;;3.90;1.30;;;6.70;82.10;;;;;;5058405;28;20024;-74
2021/12/11 06:22:15;;;;;;;4.15;1.50;;;6.70;82.90;;;;;;5053868;28;20033;-75
2021/12/11 06:24:40;;;;;;;6.63;1.40;;;6.60;82.90;;;;;;5053013;28;20032;-75
2021/12/11 06:27:06;;;;;;;4.53;1.20;;;6.60;83.50;;;;;;5043417;28;20040;-75
2021/12/11 06:29:32;;;;;;;6.55;1.48;;;6.60;83.90;;;;;;5056279;28;20021;-75
2021/12/11 06:31:58;;;;;;;5.07;1.63;;;6.50;84.00;;;;;;5057995;28;20024;-75
2021/12/11 06:34:24;;;;;;;8.30;1.50;;;6.50;84.30;;;;;;5053253;28;20400;-75
2021/12/11 06:36:51;;;;;;;2.55;1.10;;;6.40;84.70;;;;;;5052007;28;20370;-75
2021/12/11 06:39:21;;;;;;;6.22;1.40;;;6.40;85.30;;;;;;5057675;28;20028;-75
2021/12/11 06:41:50;;;;;;;7.30;1.50;;;6.40;84.90;;;;;;5055807;28;20382;-75
2021/12/11 06:44:17;;;;;;;5.88;1.30;;;6.40;84.20;;;;;;5057373;28;20021;-75
2021/12/11 06:46:43;;;;;;;5.47;1.30;;;6.30;85.00;;;;;;5056084;28;20017;-77
2021/12/11 06:49:10;;;;;;;4.22;1.33;;;6.40;85.00;;;;;;5046127;28;20028;-78
2021/12/11 06:51:36;;;;;;;6.75;1.50;;;6.40;84.60;;;;;;5053304;28;20405;-77
2021/12/11 06:54:08;;;;;;;8.10;1.80;;;6.40;84.60;;;;;;5057875;28;20029;-75
2021/12/11 06:56:36;;;;;;;4.45;1.25;;;6.50;84.80;;;;;;5050988;28;20021;-74
2021/12/11 06:59:02;;;;;;;4.38;1.45;;;6.50;84.90;;;;;;5050200;28;20033;-75
2021/12/11 07:01:28;;;;;;;4.50;1.65;;;6.50;85.10;;;;;;5050712;28;20409;-75
2021/12/11 07:03:57;;;;;;;5.90;2.03;;;6.50;85.60;;;;;;5051912;28;20025;-75
2021/12/11 07:06:23;;;;;;;7.18;1.45;;;6.50;85.30;;;;;;5054122;28;20552;-75
2021/12/11 07:08:50;;;;;;;4.50;1.35;;;6.50;85.20;;;;;;5046477;28;20524;-75
2021/12/11 07:11:17;;;;;;;6.47;1.48;;;6.50;85.40;;;;;;5052404;28;20015;-75
2021/12/11 07:13:44;;;;;;;7.00;1.40;;;6.50;84.70;;;;;;5049430;28;20033;-75
2021/12/11 07:16:10;;;;;;;5.35;1.48;;;6.60;84.30;;;;;;5046442;28;20110;-77
2021/12/11 07:18:36;;;;;;;5.05;1.88;;;6.70;83.60;;;;;;5051950;28;20025;-74
2021/12/11 07:21:04;;;;;;;8.30;1.52;;;6.70;83.70;;;;;;5052065;28;20083;-75
2021/12/11 07:23:30;;;;;;;5.60;1.40;;;6.80;83.70;;;;;;5051533;28;20092;-74
2021/12/11 07:26:16;;;;;;;8.25;1.65;;;6.80;83.10;;;;;;5047036;28;20453;-75
2021/12/11 07:28:45;;;;;;;5.90;1.88;;;6.80;83.90;;;;;;5045363;28;20060;-75
2021/12/11 07:31:11;;;;;;;3.15;1.30;;;6.80;83.60;;;;;;5049616;28;20029;-74
2021/12/11 07:33:37;;;;;;;6.13;1.60;;;6.70;84.00;;;;;;5051189;28;20136;-75
2021/12/11 07:36:04;;;;;;;5.32;1.60;;;6.70;84.20;;;;;;5050950;28;20120;-74
2021/12/11 07:38:32;;;;;;;6.85;1.60;;;6.70;83.70;;;;;;5050719;28;20059;-74
2021/12/11 07:41:00;;;;;;;4.35;1.40;;;6.70;83.80;;;;;;5046739;28;20029;-74
2021/12/11 07:43:28;;;;;;;7.53;2.00;;;6.70;83.40;;;;;;5049925;28;20048;-74
2021/12/11 07:45:55;;;;;;;5.38;1.58;;;6.80;82.80;;;;;;5052092;28;20026;-74
2021/12/11 07:48:21;;;;;;;6.38;1.73;;;6.80;82.60;;;;;;5055454;28;20071;-74
2021/12/11 07:50:48;;;;;;;5.07;1.95;;;6.90;82.30;;;;;;5052717;28;20034;-74
2021/12/11 07:53:15;;;;;;;6.53;1.65;;;6.90;81.90;;;;;;5053236;28;20025;-74
2021/12/11 07:55:41;;;;;;;7.13;1.92;;;7.00;81.50;;;;;;5058813;28;20037;-72
2021/12/11 07:58:07;;;;;;;5.45;1.52;;;7.20;80.80;;;;;;5057217;28;20036;-73
2021/12/11 08:00:34;;;;;;;7.50;1.77;;;7.30;79.90;;;;;;5059188;28;20032;-72
2021/12/11 08:03:03;;;;;;;6.22;1.80;;;7.40;79.80;;;;;;5055010;28;20494;-72
2021/12/11 08:05:29;;;;;;;10.23;1.73;;;7.60;79.90;;;;;;5060277;28;20274;-72
2021/12/11 08:08:00;;;;;;;5.25;1.58;;;7.80;78.90;;;;;;5057322;28;20537;-74
2021/12/11 08:10:28;;;;;;;5.47;1.67;;;7.90;78.80;;;;;;5061903;28;20020;-73
2021/12/11 08:12:53;;;;;;;5.47;1.80;;;8.10;78.20;;;;;;5058672;28;20033;-73
2021/12/11 08:15:20;;;;;;;6.47;1.73;;;8.30;78.20;;;;;;5061811;28;20020;-73
2021/12/11 08:17:52;;;;;;;4.05;1.60;;;8.50;78.00;;;;;;5060518;28;20037;-73
2021/12/11 08:20:19;;;;;;;9.20;1.73;;;8.90;77.00;;;;;;5065660;28;20078;-72
2021/12/11 08:22:44;;;;;;;6.13;1.70;;;9.20;76.60;;;;;;5060515;28;20033;-72
2021/12/11 08:25:11;;;;;;;3.95;1.52;;;9.60;75.00;;;;;;5049439;28;20079;-73
2021/12/11 08:27:37;;;;;;;3.40;1.48;;;10.40;73.30;;;;;;5050893;28;20045;-73
2021/12/11 08:30:06;;;;;;;5.88;1.65;;;12.40;68.70;;;;;;5058549;28;20512;-72
2021/12/11 08:32:32;;;;;;;4.90;1.48;;;14.80;60.90;;;;;;5060118;28;20021;-73
2021/12/11 08:34:58;;;;;;;7.63;1.65;;;16.40;56.40;;;;;;5051681;28;20071;-72
2021/12/11 08:37:25;;;;;;;5.00;1.30;;;17.20;54.00;;;;;;5049855;28;20048;-75
2021/12/11 08:39:52;;;;;;;5.85;1.55;;;16.80;53.10;;;;;;5061625;28;20450;-77
2021/12/11 08:42:23;;;;;;;5.43;1.58;;;16.30;54.60;;;;;;5063574;28;20025;-76
2021/12/11 08:44:57;;;;;;;7.20;1.60;;;15.90;54.70;;;;;;5060545;28;20049;-77
2021/12/11 08:47:23;;;;;;;6.90;1.63;;;14.60;57.20;;;;;;5060162;28;20024;-79
2021/12/11 08:49:51;;;;;;;7.65;1.80;;;13.70;59.50;;;;;;5061446;28;20035;-79
2021/12/11 08:52:21;;;;;;;5.82;1.60;;;13.80;60.90;;;;;;5060108;28;20067;-80
2021/12/11 08:54:48;;;;;;;4.15;1.33;;;14.60;58.10;;;;;;5057120;28;20029;-84
2021/12/11 08:57:16;;;;;;;4.55;1.30;;;14.40;56.90;;;;;;5060461;28;20053;-81
2021/12/11 08:59:50;;;;;;;3.25;1.40;;;13.70;58.80;;;;;;5057373;28;20060;-81
2021/12/11 09:02:18;;;;;;;;;;;13.10;60.80;;;;;;5059216;28;20112;-79
2021/12/11 09:04:58;;;;;;;5.35;1.40;;;12.70;61.60;;;;;;5059377;28;20422;-82
2021/12/11 09:07:39;;;;;;;5.55;1.20;;;12.60;62.80;;;;;;5051696;28;20031;-82
2021/12/11 09:10:15;;;;;;;6.47;1.35;;;12.50;62.60;;;;;;5055902;28;20021;-79
2021/12/11 09:13:16;;;;;;;7.75;1.95;;;12.40;63.20;;;;;;5059688;28;20480;-80
2021/12/11 09:15:54;;;;;;;4.47;1.50;;;12.50;63.60;;;;;;5034782;28;20035;-81
2021/12/11 09:18:28;;;;;;;5.00;1.65;;;12.50;63.30;;;;;;5061414;28;20029;-81
2021/12/11 09:21:18;;;;;;;4.18;1.27;;;12.50;63.50;;;;;;5056364;28;20036;-80
2021/12/11 09:24:03;;;;;;;4.32;1.60;;;12.60;63.00;;;;;;5059792;28;20044;-81
2021/12/11 09:26:54;;;;;;;6.07;1.50;;;12.70;63.50;;;;;;5064342;28;20147;-81
2021/12/11 09:30:00;;;;;;;8.07;1.67;;;12.80;63.10;;;;;;5063518;28;20131;-80
2021/12/11 09:32:28;;;;;;;4.38;1.50;;;12.80;62.20;;;;;;5060337;28;20033;-81
2021/12/11 09:35:05;;;;;;;4.82;1.55;;;13.00;62.40;;;;;;5061882;28;20092;-81
2021/12/11 09:37:32;;;;;;;5.97;2.33;;;13.00;62.90;;;;;;5053790;28;20511;-81
2021/12/11 09:40:05;;;;;;;7.57;1.98;;;13.20;62.40;;;;;;5044705;28;20454;-80
2021/12/11 09:42:30;;;;;;;6.28;1.75;;;13.10;61.80;;;;;;5058891;28;20036;-80
2021/12/11 09:45:01;;;;;;;7.55;1.60;;;13.30;61.60;;;;;;5050925;28;20028;-80
2021/12/11 09:47:31;;;;;;;6.50;1.80;;;13.20;61.20;;;;;;5060366;28;20020;-80
2021/12/11 09:50:04;;;;;;;7.53;1.85;;;13.30;61.60;;;;;;5058409;28;20025;-80
2021/12/11 09:52:32;;;;;;;5.90;1.95;;;13.40;61.80;;;;;;5051339;28;20102;-80
2021/12/11 09:55:15;;;;;;;6.38;1.63;;;13.30;60.90;;;;;;5050515;28;20033;-80
2021/12/11 09:57:44;;;;;;;8.68;2.10;;;13.40;60.90;;;;;;5055293;28;20057;-80
2021/12/11 10:00:23;;;;;;;5.40;1.40;;;13.50;60.40;;;;;;5056567;28;20199;-80
2021/12/11 10:02:49;;;;;;;6.57;1.77;;;13.60;59.20;;;;;;5050772;28;20151;-84
2021/12/11 10:05:32;;;;;;;5.25;1.50;;;13.80;59.50;;;;;;5052019;28;20512;-82
2021/12/11 10:11:01;;;;;;;6.15;1.75;;;13.70;59.20;;;;;;5049886;28;20137;-79
2021/12/11 10:13:27;;;;;;;6.70;1.88;;;13.50;58.60;;;;;;5051272;28;20314;-80
2021/12/11 10:15:53;;;;;;;6.47;2.00;;;13.60;59.60;;;;;;5051971;28;20114;-81
2021/12/11 10:18:24;;;;;;;7.35;2.10;;;13.70;60.20;;;;;;5050753;28;20127;-81
2021/12/11 10:21:26;;;;;;;5.60;2.13;;;13.80;59.80;;;;;;5047898;28;20574;-81
2021/12/11 10:23:55;;;;;;;6.25;2.13;;;13.80;60.20;;;;;;5040239;28;20516;-81
2021/12/11 10:26:25;;;;;;;5.63;1.92;;;13.90;59.40;;;;;;5049002;28;20045;-80
2021/12/11 10:28:55;;;;;;;5.57;1.63;;;13.80;58.70;;;;;;5050447;28;20546;-80
2021/12/11 10:31:28;;;;;;;6.13;1.30;;;13.80;58.10;;;;;;5047313;28;20036;-80
2021/12/11 10:34:00;;;;;;;3.15;1.00;;;13.70;57.60;;;;;;5050405;28;20036;-81
2021/12/11 10:36:29;;;;;;;6.00;1.50;;;13.60;56.70;;;;;;5050559;28;20442;-80
2021/12/11 10:38:58;;;;;;;8.07;2.00;;;13.60;57.00;;;;;;5042208;28;20025;-81
2021/12/11 10:41:26;;;;;;;6.60;1.50;;;13.60;56.60;;;;;;5050715;28;20023;-81
2021/12/11 10:43:57;;;;;;;3.55;1.05;;;13.70;57.20;;;;;;5048408;28;20020;-82
2021/12/11 10:46:27;;;;;;;5.47;1.30;;;13.80;56.60;;;;;;5052157;28;20032;-81
2021/12/11 10:48:54;;;;;;;4.38;1.52;;;14.00;57.30;;;;;;5057747;28;20025;-81
2021/12/11 10:51:24;;;;;;;5.30;1.40;;;14.10;57.60;;;;;;5059681;28;20020;-83
2021/12/11 10:53:50;;;;;;;4.00;1.30;;;14.30;56.80;;;;;;5058737;28;20021;-82
2021/12/11 10:56:20;;;;;;;5.32;1.40;;;14.20;56.30;;;;;;5052675;28;20060;-82
2021/12/11 10:58:58;;;;;;;4.85;1.25;;;14.30;56.50;;;;;;5053963;28;20016;-81
2021/12/11 11:01:32;;;;;;;4.60;1.20;;;14.20;56.20;;;;;;5053576;28;20562;-78
2021/12/11 11:04:03;;;;;;;6.95;1.20;;;14.40;56.30;;;;;;5051209;28;20474;-79
2021/12/11 11:06:29;;;;;;;3.90;1.40;;;14.40;56.20;;;;;;5059001;28;20017;-79
2021/12/11 11:08:58;;;;;;;5.35;1.30;;;14.40;55.30;;;;;;5059129;28;20021;-79
2021/12/11 11:11:28;;;;;;;3.92;1.23;;;14.40;55.30;;;;;;5056775;28;20473;-80
2021/12/11 11:13:54;;;;;;;4.18;1.30;;;14.40;54.90;;;;;;5055019;28;20036;-79
2021/12/11 11:16:20;;;;;;;4.25;1.27;;;14.50;55.00;;;;;;5054948;28;20017;-79
2021/12/11 11:18:47;;;;;;;5.13;1.30;;;14.50;55.20;;;;;;5063254;28;20063;-81
2021/12/11 11:21:27;;;;;;;9.40;4.07;;;14.50;54.90;;;;;;5055011;28;20117;-75
2021/12/11 11:23:54;;;;;;;6.57;2.45;;;14.70;55.50;;;;;;5047193;28;20080;-82
2021/12/11 11:26:29;;;;;;;5.50;1.67;;;14.70;55.40;;;;;;5052084;28;20037;-73
2021/12/11 11:28:56;;;;;;;2.42;1.13;;;14.50;54.30;;;;;;5055638;28;20489;-77
2021/12/11 11:31:27;;;;;;;7.40;1.60;;;14.80;54.00;;;;;;5054814;28;20488;-81
2021/12/11 11:33:54;;;;;;;5.10;1.48;;;14.80;55.10;;;;;;5054978;28;20029;-85
2021/12/11 11:36:23;;;;;;;5.18;1.40;;;14.90;55.40;;;;;;5054883;28;20025;-78
2021/12/11 11:38:54;;;;;;;3.90;1.30;;;15.10;55.40;;;;;;5054278;28;20021;-77
2021/12/11 11:41:26;;;;;;;4.25;1.33;;;15.10;53.10;;;;;;5055852;28;20026;-76
2021/12/11 11:43:53;;;;;;;6.00;1.70;;;15.10;52.90;;;;;;5054925;28;20027;-77
2021/12/11 11:46:19;;;;;;;6.82;1.50;;;15.40;53.00;;;;;;5054978;28;20040;-79
2021/12/11 11:48:50;;;;;;;6.10;1.30;;;15.40;52.90;;;;;;5054278;28;20191;-80
2021/12/11 11:51:39;;;;;;;5.65;1.40;;;15.40;53.30;;;;;;5054361;28;20473;-76
2021/12/11 11:54:06;;;;;;;5.68;1.30;;;15.30;53.50;;;;;;5054431;28;20056;-78
2021/12/11 11:56:36;;;;;;;5.90;1.42;;;15.60;52.60;;;;;;5054913;28;20112;-81
2021/12/11 11:59:06;;;;;;;4.30;1.10;;;15.90;52.10;;;;;;5053245;28;20032;-79
2021/12/11 12:01:40;;;;;;;5.25;1.50;;;16.00;52.30;;;;;;5062354;28;20020;-80
2021/12/11 12:04:11;;;;;;;3.85;1.30;;;16.20;51.90;;;;;;5059691;28;20035;-80
2021/12/11 12:06:38;;;;;;;3.42;1.10;;;16.30;52.20;;;;;;5058279;28;20120;-78
2021/12/11 12:09:07;;;;;;;3.55;1.10;;;16.60;51.10;;;;;;5060478;28;20182;-74
2021/12/11 12:11:35;;;;;;;4.35;1.20;;;16.70;51.60;;;;;;5060959;28;20025;-75
2021/12/11 12:14:04;;;;;;;7.07;1.33;;;17.00;52.00;;;;;;5060421;28;20033;-74
2021/12/11 12:16:32;;;;;;;4.38;1.10;;;17.10;51.00;;;;;;5060918;28;20373;-75
2021/12/11 12:18:59;;;;;;;3.33;1.20;;;17.00;50.50;;;;;;5048766;28;20373;-75
2021/12/11 12:21:26;;;;;;;4.03;1.20;;;17.30;50.40;;;;;;5055745;28;20528;-74
2021/12/11 12:23:52;;;;;;;4.43;1.48;;;17.40;50.80;;;;;;5059295;28;20045;-75
2021/12/11 12:26:22;;;;;;;3.45;1.13;;;17.40;50.10;;;;;;5060006;28;20036;-74
2021/12/11 12:28:49;;;;;;;3.15;1.48;;;17.40;49.30;;;;;;5053212;28;20120;-74
2021/12/11 12:31:25;;;;;;;6.32;1.60;;;17.30;49.20;;;;;;5056520;28;20029;-74
2021/12/11 12:33:51;;;;;;;5.50;1.35;;;17.50;50.00;;;;;;5060913;28;20053;-77
2021/12/11 12:36:17;;;;;;;4.30;1.30;;;18.60;48.90;;;;;;5052309;28;20497;-75
2021/12/11 12:38:46;;;;;;;5.82;1.48;;;19.10;48.20;;;;;;5059580;28;20028;-74
2021/12/11 12:41:27;;;;;;;4.13;1.13;;;19.10;46.60;;;;;;5054215;28;20033;-75
2021/12/11 12:44:19;;;;;;;4.38;1.35;;;19.20;46.30;;;;;;5051791;28;20038;-75
2021/12/11 12:46:50;;;;;;;5.07;1.42;;;19.60;46.60;;;;;;5044433;28;20051;-74
2021/12/11 12:49:17;;;;;;;4.43;1.27;;;20.30;46.00;;;;;;5053462;28;20044;-74
2021/12/11 12:51:44;;;;;;;5.38;1.30;;;20.90;44.10;;;;;;5055610;28;20446;-75
2021/12/11 12:54:13;;;;;;;6.82;1.85;;;21.80;43.90;;;;;;5057865;28;20446;-75
2021/12/11 12:56:45;;;;;;;4.63;1.30;;;22.30;43.40;;;;;;5053426;28;20032;-77
2021/12/11 12:59:18;;;;;;;7.90;1.25;;;20.80;45.60;;;;;;5056084;28;20056;-85
2021/12/11 13:01:46;;;;;;;;;;;21.60;44.90;;;;;;5049980;28;20404;-78
2021/12/11 13:04:17;;;;;;;4.78;1.20;;;24.50;42.80;;;;;;5053498;28;20007;-78
2021/12/11 13:06:51;;;;;;;4.68;1.45;;;26.20;40.30;;;;;;5054680;28;20071;-75
2021/12/11 13:09:23;;;;;;;4.07;1.48;;;27.60;39.00;;;;;;5055737;28;20025;-74
2021/12/11 13:12:03;;;;;;;5.32;1.38;;;28.10;37.30;;;;;;5055070;28;20029;-75
2021/12/11 13:14:31;;;;;;;4.40;1.20;;;28.40;36.80;;;;;;5057252;28;20032;-75
2021/12/11 13:17:06;;;;;;;3.50;1.25;;;29.00;36.20;;;;;;5047596;28;20025;-74
2021/12/11 13:19:40;;;;;;;4.90;1.27;;;29.10;35.40;;;;;;5050949;28;20436;-74
2021/12/11 13:22:09;;;;;;;5.03;1.30;;;29.00;35.20;;;;;;5040382;28;20044;-74
2021/12/11 13:24:35;;;;;;;4.00;1.10;;;29.00;35.30;;;;;;5046187;28;20025;-74
2021/12/11 13:27:08;;;;;;;4.28;1.20;;;28.20;34.70;;;;;;5057656;28;20455;-75
2021/12/11 13:29:39;;;;;;;3.67;1.30;;;28.60;35.30;;;;;;5054121;28;20021;-74
2021/12/11 13:32:11;;;;;;;4.85;1.20;;;27.20;35.20;;;;;;5057167;28;20025;-75
2021/12/11 13:34:40;;;;;;;4.50;1.15;;;26.40;36.20;;;;;;5055185;28;20028;-72